Snow/Ice From: 16-12-2017 16:00 Until: 17-12-2017 16:00 warning for: Snow/Ice Level: Yellow info button

Although rather usual in this region, locally or potentially dangerous phenomena are expected. (such as local winds, summer thunderstorms, rising streams or high waves) Be aware and pay attention to the latest weather updates, especially if you carry out activities exposed to weather or close to a stream or shoreline. 


Meteo18 Weather Cam more information Meteo18 Weather Cam


Thunder radar more information blitzortung!


warning for Snow/Ice more information rain snow radar


Visit our other weather sites:

Template documentation
and downloads

And another site



Weather Underground History page Text

Daily Summary for June 6, 2017 Units:  Both    English   Metric
« Previous Day
Next Day »
Daily Weekly Monthly Yearly Custom
  High: Low: Average:
Temperature: 63.1 °F /  17.3 °C 51.6 °F /  10.9 °C 57 °F /  13.9 °C
Dew Point: 55.2 °F /  12.9 °C 44.6 °F /  7.0 °C 49.6 °F /  9.8 °C
Humidity: 95 % 52 % 78 %
Wind Speed: 29 mph /  46.7 km/h - 7.3 mph /  11.8 km/h
Wind Gust: 30 mph /  48.3 km/h - -
Wind:- - WSW
Pressure: 30 in /  1016.8 hPa 29.7 in /  1004.3 hPa -
Precipitation: 0.43 in /  10.9 mm    
Historical Graphs
 
 
Tabular Data for June 6, 2017
Time Temperature Dew Point Pressure Wind Wind Speed Wind Gust Humidity Rainfall Rate (Hourly)
00:02 57.4 °F /  14.1 °C 52.3 °F /  11.3 °C 29.8 in /  1008.4 hPa Calm   4 mph /  6.4 km/h 83 % 0 in /  0.0 mm
00:07 57.4 °F /  14.1 °C 52.3 °F /  11.3 °C 29.8 in /  1008.4 hPa SSW 2 mph /  3.2 km/h 3 mph /  4.8 km/h 83 % 0 in /  0.0 mm
00:12 57.4 °F /  14.1 °C 52.3 °F /  11.3 °C 29.8 in /  1008.4 hPa Calm   3 mph /  4.8 km/h 83 % 0 in /  0.0 mm
00:17 57.4 °F /  14.1 °C 52.5 °F /  11.4 °C 29.8 in /  1008.4 hPa SW 2 mph /  3.2 km/h 3 mph /  4.8 km/h 84 % 0 in /  0.0 mm
00:22 57.4 °F /  14.1 °C 52.5 °F /  11.4 °C 29.8 in /  1008.4 hPa SSW 3 mph /  4.8 km/h 4 mph /  6.4 km/h 84 % 0 in /  0.0 mm
00:27 57.4 °F /  14.1 °C 52.5 °F /  11.4 °C 29.8 in /  1008.4 hPa SSW 5 mph /  8.0 km/h 5 mph /  8.0 km/h 84 % 0 in /  0.0 mm
00:32 57.4 °F /  14.1 °C 52.5 °F /  11.4 °C 29.8 in /  1008.4 hPa SW 3 mph /  4.8 km/h 5 mph /  8.0 km/h 84 % 0 in /  0.0 mm
00:42 57.7 °F /  14.3 °C 52.7 °F /  11.5 °C 29.8 in /  1008.0 hPa SW 5 mph /  8.0 km/h 5 mph /  8.0 km/h 83 % 0 in /  0.0 mm
00:47 57.9 °F /  14.4 °C 52.7 °F /  11.5 °C 29.8 in /  1008.0 hPa SSW 3 mph /  4.8 km/h 8 mph /  12.9 km/h 83 % 0 in /  0.0 mm
00:52 58.1 °F /  14.5 °C 52.7 °F /  11.5 °C 29.8 in /  1008.0 hPa SW 4 mph /  6.4 km/h 8 mph /  12.9 km/h 82 % 0 in /  0.0 mm
00:57 58.3 °F /  14.6 °C 52.9 °F /  11.6 °C 29.8 in /  1008.0 hPa WSW 4 mph /  6.4 km/h 8 mph /  12.9 km/h 82 % 0 in /  0.0 mm
01:02 58.5 °F /  14.7 °C 53.1 °F /  11.7 °C 29.8 in /  1008.0 hPa South 4 mph /  6.4 km/h 6 mph /  9.7 km/h 82 % 0 in /  0.0 mm
01:07 58.5 °F /  14.7 °C 53.1 °F /  11.7 °C 29.8 in /  1007.7 hPa SW 3 mph /  4.8 km/h 7 mph /  11.3 km/h 82 % 0 in /  0.0 mm
01:12 58.6 °F /  14.8 °C 52.9 °F /  11.6 °C 29.8 in /  1007.7 hPa SW 6 mph /  9.7 km/h 7 mph /  11.3 km/h 81 % 0 in /  0.0 mm
01:17 58.6 °F /  14.8 °C 53.2 °F /  11.8 °C 29.8 in /  1007.7 hPa SW 5 mph /  8.0 km/h 7 mph /  11.3 km/h 82 % 0 in /  0.0 mm
01:22 58.6 °F /  14.8 °C 52.9 °F /  11.6 °C 29.8 in /  1007.7 hPa SW 4 mph /  6.4 km/h 7 mph /  11.3 km/h 81 % 0 in /  0.0 mm
01:27 59 °F /  15.0 °C 52.5 °F /  11.4 °C 29.8 in /  1007.7 hPa WSW 5 mph /  8.0 km/h 8 mph /  12.9 km/h 79 % 0 in /  0.0 mm
01:32 59.7 °F /  15.4 °C 52.5 °F /  11.4 °C 29.7 in /  1007.3 hPa SSW 3 mph /  4.8 km/h 11 mph /  17.7 km/h 77 % 0 in /  0.0 mm
01:37 60.1 °F /  15.6 °C 52.9 °F /  11.6 °C 29.7 in /  1007.3 hPa SW 9 mph /  14.5 km/h 11 mph /  17.7 km/h 77 % 0 in /  0.0 mm
01:42 59.7 °F /  15.4 °C 52.9 °F /  11.6 °C 29.7 in /  1007.3 hPa SSW 5 mph /  8.0 km/h 11 mph /  17.7 km/h 78 % 0 in /  0.0 mm
01:47 59.4 °F /  15.2 °C 53.2 °F /  11.8 °C 29.7 in /  1007.3 hPa SSW 3 mph /  4.8 km/h 11 mph /  17.7 km/h 80 % 0 in /  0.0 mm
01:52 59.2 °F /  15.1 °C 53.4 °F /  11.9 °C 29.7 in /  1007.3 hPa South 2 mph /  3.2 km/h 11 mph /  17.7 km/h 81 % 0 in /  0.0 mm
01:57 59.2 °F /  15.1 °C 53.4 °F /  11.9 °C 29.7 in /  1007.0 hPa SW 4 mph /  6.4 km/h 8 mph /  12.9 km/h 81 % 0 in /  0.0 mm
02:02 59.2 °F /  15.1 °C 53.1 °F /  11.7 °C 29.7 in /  1007.0 hPa West 2 mph /  3.2 km/h 6 mph /  9.7 km/h 80 % 0 in /  0.0 mm
02:07 59.4 °F /  15.2 °C 52.9 °F /  11.6 °C 29.7 in /  1007.3 hPa SSW 4 mph /  6.4 km/h 10 mph /  16.1 km/h 79 % 0 in /  0.0 mm
02:12 59.2 °F /  15.1 °C 53.4 °F /  11.9 °C 29.7 in /  1007.3 hPa SW 7 mph /  11.3 km/h 10 mph /  16.1 km/h 81 % 0 in /  0.0 mm
02:17 59.2 °F /  15.1 °C 53.1 °F /  11.7 °C 29.7 in /  1007.3 hPa SSW 9 mph /  14.5 km/h 19 mph /  30.6 km/h 80 % 0.02 in /  0.5 mm
02:22 58.5 °F /  14.7 °C 53.1 °F /  11.7 °C 29.7 in /  1007.3 hPa WSW 8 mph /  12.9 km/h 19 mph /  30.6 km/h 82 % 0.02 in /  0.5 mm
02:27 57.7 °F /  14.3 °C 53.2 °F /  11.8 °C 29.7 in /  1007.3 hPa SSW 2 mph /  3.2 km/h 19 mph /  30.6 km/h 85 % 0.02 in /  0.5 mm
02:32 57.2 °F /  14.0 °C 53.4 °F /  11.9 °C 29.7 in /  1007.3 hPa WSW 7 mph /  11.3 km/h 18 mph /  29.0 km/h 87 % 0.02 in /  0.5 mm
02:37 56.8 °F /  13.8 °C 53.2 °F /  11.8 °C 29.7 in /  1007.3 hPa SSW 3 mph /  4.8 km/h 12 mph /  19.3 km/h 88 % 0.02 in /  0.5 mm
02:42 56.7 °F /  13.7 °C 53.4 °F /  11.9 °C 29.7 in /  1007.0 hPa SSW 3 mph /  4.8 km/h 13 mph /  20.9 km/h 89 % 0.05 in /  1.3 mm
02:47 56.5 °F /  13.6 °C 53.6 °F /  12.0 °C 29.7 in /  1006.7 hPa SSW 4 mph /  6.4 km/h 13 mph /  20.9 km/h 90 % 0.06 in /  1.5 mm
02:52 56.5 °F /  13.6 °C 54 °F /  12.2 °C 29.7 in /  1006.7 hPa South 2 mph /  3.2 km/h 8 mph /  12.9 km/h 91 % 0.06 in /  1.5 mm
02:57 56.3 °F /  13.5 °C 54 °F /  12.2 °C 29.7 in /  1006.7 hPa SSW 3 mph /  4.8 km/h 7 mph /  11.3 km/h 92 % 0.07 in /  1.8 mm
03:02 56.3 °F /  13.5 °C 54 °F /  12.2 °C 29.7 in /  1006.7 hPa SSW 3 mph /  4.8 km/h 8 mph /  12.9 km/h 92 % 0.09 in /  2.3 mm
03:07 56.1 °F /  13.4 °C 53.8 °F /  12.1 °C 29.7 in /  1006.3 hPa SSW 7 mph /  11.3 km/h 8 mph /  12.9 km/h 92 % 0.1 in /  2.5 mm
03:12 56.1 °F /  13.4 °C 54.1 °F /  12.3 °C 29.7 in /  1006.3 hPa SW 7 mph /  11.3 km/h 12 mph /  19.3 km/h 93 % 0.12 in /  3.0 mm
03:17 56.1 °F /  13.4 °C 54.1 °F /  12.3 °C 29.7 in /  1006.3 hPa SSW 6 mph /  9.7 km/h 13 mph /  20.9 km/h 93 % 0.13 in /  3.3 mm
03:22 55.9 °F /  13.3 °C 54 °F /  12.2 °C 29.7 in /  1006.0 hPa SW 7 mph /  11.3 km/h 13 mph /  20.9 km/h 93 % 0.15 in /  3.8 mm
03:27 55.8 °F /  13.2 °C 53.8 °F /  12.1 °C 29.7 in /  1006.0 hPa SW 9 mph /  14.5 km/h 13 mph /  20.9 km/h 93 % 0.17 in /  4.3 mm
03:32 55.8 °F /  13.2 °C 53.8 °F /  12.1 °C 29.7 in /  1006.0 hPa SSW 4 mph /  6.4 km/h 11 mph /  17.7 km/h 93 % 0.17 in /  4.3 mm
03:37 55.8 °F /  13.2 °C 54.1 °F /  12.3 °C 29.7 in /  1006.0 hPa SSW 2 mph /  3.2 km/h 11 mph /  17.7 km/h 94 % 0.17 in /  4.3 mm
03:42 55.8 °F /  13.2 °C 54.1 °F /  12.3 °C 29.7 in /  1005.6 hPa South 2 mph /  3.2 km/h 11 mph /  17.7 km/h 94 % 0.17 in /  4.3 mm
03:47 55.6 °F /  13.1 °C 54 °F /  12.2 °C 29.7 in /  1005.6 hPa SSW 3 mph /  4.8 km/h 9 mph /  14.5 km/h 94 % 0.17 in /  4.3 mm
03:52 55.6 °F /  13.1 °C 54 °F /  12.2 °C 29.7 in /  1005.6 hPa SSE 2 mph /  3.2 km/h 9 mph /  14.5 km/h 94 % 0.16 in /  4.1 mm
03:57 55.6 °F /  13.1 °C 54 °F /  12.2 °C 29.7 in /  1005.6 hPa SSE 3 mph /  4.8 km/h 9 mph /  14.5 km/h 94 % 0.14 in /  3.6 mm
04:02 55.6 °F /  13.1 °C 54 °F /  12.2 °C 29.7 in /  1005.3 hPa SW 5 mph /  8.0 km/h 8 mph /  12.9 km/h 94 % 0.13 in /  3.3 mm
04:07 55.6 °F /  13.1 °C 54.1 °F /  12.3 °C 29.7 in /  1005.3 hPa SSE 2 mph /  3.2 km/h 8 mph /  12.9 km/h 95 % 0.11 in /  2.8 mm
04:12 55.6 °F /  13.1 °C 54.1 °F /  12.3 °C 29.7 in /  1005.3 hPa SSW 3 mph /  4.8 km/h 8 mph /  12.9 km/h 95 % 0.09 in /  2.3 mm
04:17 55.6 °F /  13.1 °C 54.1 °F /  12.3 °C 29.7 in /  1005.3 hPa SSW 3 mph /  4.8 km/h 6 mph /  9.7 km/h 95 % 0.07 in /  1.8 mm
04:22 55.8 °F /  13.2 °C 54.3 °F /  12.4 °C 29.7 in /  1005.3 hPa SSW 3 mph /  4.8 km/h 6 mph /  9.7 km/h 95 % 0.06 in /  1.5 mm
04:27 55.8 °F /  13.2 °C 54.3 °F /  12.4 °C 29.7 in /  1005.0 hPa SW 3 mph /  4.8 km/h 6 mph /  9.7 km/h 95 % 0.05 in /  1.3 mm
04:32 55.8 °F /  13.2 °C 54.3 °F /  12.4 °C 29.7 in /  1005.0 hPa SE 3 mph /  4.8 km/h 6 mph /  9.7 km/h 95 % 0.03 in /  0.8 mm
04:37 55.8 °F /  13.2 °C 54.3 °F /  12.4 °C 29.7 in /  1005.0 hPa SSE 2 mph /  3.2 km/h 8 mph /  12.9 km/h 95 % 0.02 in /  0.5 mm
04:42 55.8 °F /  13.2 °C 54.3 °F /  12.4 °C 29.7 in /  1005.0 hPa SW 4 mph /  6.4 km/h 8 mph /  12.9 km/h 95 % 0.02 in /  0.5 mm
04:47 55.8 °F /  13.2 °C 54.3 °F /  12.4 °C 29.7 in /  1005.0 hPa SSE 3 mph /  4.8 km/h 7 mph /  11.3 km/h 95 % 0.02 in /  0.5 mm
04:52 55.9 °F /  13.3 °C 54.5 °F /  12.5 °C 29.7 in /  1004.6 hPa SSW 2 mph /  3.2 km/h 11 mph /  17.7 km/h 95 % 0.02 in /  0.5 mm
04:57 55.9 °F /  13.3 °C 54.5 °F /  12.5 °C 29.7 in /  1004.6 hPa South 10 mph /  16.1 km/h 12 mph /  19.3 km/h 95 % 0.02 in /  0.5 mm
05:02 56.3 °F /  13.5 °C 54.7 °F /  12.6 °C 29.7 in /  1004.6 hPa SSW 5 mph /  8.0 km/h 12 mph /  19.3 km/h 94 % 0.02 in /  0.5 mm
05:07 56.5 °F /  13.6 °C 54.9 °F /  12.7 °C 29.7 in /  1004.6 hPa SSW 9 mph /  14.5 km/h 12 mph /  19.3 km/h 94 % 0.02 in /  0.5 mm
05:12 56.5 °F /  13.6 °C 54.5 °F /  12.5 °C 29.7 in /  1004.6 hPa SSE 7 mph /  11.3 km/h 12 mph /  19.3 km/h 93 % 0.02 in /  0.5 mm
05:17 56.7 °F /  13.7 °C 54.7 °F /  12.6 °C 29.7 in /  1004.6 hPa SW 5 mph /  8.0 km/h 14 mph /  22.5 km/h 93 % 0.02 in /  0.5 mm
05:22 56.5 °F /  13.6 °C 54.5 °F /  12.5 °C 29.7 in /  1004.6 hPa South 10 mph /  16.1 km/h 14 mph /  22.5 km/h 93 % 0.05 in /  1.3 mm
05:27 56.5 °F /  13.6 °C 54.9 °F /  12.7 °C 29.7 in /  1004.6 hPa SSW 6 mph /  9.7 km/h 14 mph /  22.5 km/h 94 % 0.05 in /  1.3 mm
05:32 56.5 °F /  13.6 °C 54.9 °F /  12.7 °C 29.7 in /  1004.3 hPa South 7 mph /  11.3 km/h 13 mph /  20.9 km/h 94 % 0.06 in /  1.5 mm
05:37 56.5 °F /  13.6 °C 54.9 °F /  12.7 °C 29.7 in /  1004.6 hPa WSW 4 mph /  6.4 km/h 13 mph /  20.9 km/h 94 % 0.06 in /  1.5 mm
05:42 56.5 °F /  13.6 °C 54.9 °F /  12.7 °C 29.7 in /  1004.6 hPa WSW 5 mph /  8.0 km/h 12 mph /  19.3 km/h 94 % 0.06 in /  1.5 mm
05:47 56.5 °F /  13.6 °C 54.9 °F /  12.7 °C 29.7 in /  1004.6 hPa SW 1 mph /  1.6 km/h 12 mph /  19.3 km/h 94 % 0.06 in /  1.5 mm
05:52 56.5 °F /  13.6 °C 54.9 °F /  12.7 °C 29.7 in /  1004.3 hPa WSW 10 mph /  16.1 km/h 14 mph /  22.5 km/h 94 % 0.07 in /  1.8 mm
05:57 56.7 °F /  13.7 °C 55 °F /  12.8 °C 29.7 in /  1004.6 hPa SSW 9 mph /  14.5 km/h 14 mph /  22.5 km/h 94 % 0.07 in /  1.8 mm
06:02 56.7 °F /  13.7 °C 55 °F /  12.8 °C 29.7 in /  1004.6 hPa WSW 11 mph /  17.7 km/h 17 mph /  27.4 km/h 94 % 0.08 in /  2.0 mm
06:07 56.7 °F /  13.7 °C 55 °F /  12.8 °C 29.7 in /  1004.3 hPa SSW 6 mph /  9.7 km/h 18 mph /  29.0 km/h 94 % 0.11 in /  2.8 mm
06:12 56.7 °F /  13.7 °C 55 °F /  12.8 °C 29.7 in /  1004.6 hPa SW 7 mph /  11.3 km/h 18 mph /  29.0 km/h 94 % 0.12 in /  3.0 mm
06:17 56.7 °F /  13.7 °C 55 °F /  12.8 °C 29.7 in /  1004.3 hPa WSW 11 mph /  17.7 km/h 18 mph /  29.0 km/h 94 % 0.09 in /  2.3 mm
06:27 56.7 °F /  13.7 °C 55 °F /  12.8 °C 29.7 in /  1004.3 hPa WSW 8 mph /  12.9 km/h 16 mph /  25.7 km/h 94 % 0.08 in /  2.0 mm
06:32 56.7 °F /  13.7 °C 55 °F /  12.8 °C 29.7 in /  1004.6 hPa SW 13 mph /  20.9 km/h 16 mph /  25.7 km/h 94 % 0.08 in /  2.0 mm
06:42 56.8 °F /  13.8 °C 55.2 °F /  12.9 °C 29.7 in /  1004.6 hPa WSW 8 mph /  12.9 km/h 21 mph /  33.8 km/h 94 % 0.06 in /  1.5 mm
06:52 56.8 °F /  13.8 °C 55.2 °F /  12.9 °C 29.7 in /  1005.0 hPa SW 6 mph /  9.7 km/h 22 mph /  35.4 km/h 94 % 0.06 in /  1.5 mm
06:57 56.7 °F /  13.7 °C 55 °F /  12.8 °C 29.7 in /  1005.0 hPa West 3 mph /  4.8 km/h 20 mph /  32.2 km/h 94 % 0.06 in /  1.5 mm
07:02 56.7 °F /  13.7 °C 55 °F /  12.8 °C 29.7 in /  1005.0 hPa WSW 12 mph /  19.3 km/h 21 mph /  33.8 km/h 94 % 0.06 in /  1.5 mm
07:07 56.7 °F /  13.7 °C 54.7 °F /  12.6 °C 29.7 in /  1005.0 hPa WSW 12 mph /  19.3 km/h 21 mph /  33.8 km/h 93 % 0.03 in /  0.8 mm
07:12 56.7 °F /  13.7 °C 54.3 °F /  12.4 °C 29.7 in /  1005.0 hPa WSW 7 mph /  11.3 km/h 21 mph /  33.8 km/h 92 % 0.03 in /  0.8 mm
07:17 56.7 °F /  13.7 °C 54.1 °F /  12.3 °C 29.7 in /  1005.3 hPa WSW 11 mph /  17.7 km/h 21 mph /  33.8 km/h 91 % 0.03 in /  0.8 mm
07:22 56.3 °F /  13.5 °C 53.1 °F /  11.7 °C 29.7 in /  1005.6 hPa West 13 mph /  20.9 km/h 23 mph /  37.0 km/h 89 % 0.02 in /  0.5 mm
07:27 55.9 °F /  13.3 °C 51.8 °F /  11.0 °C 29.7 in /  1005.6 hPa West 7 mph /  11.3 km/h 23 mph /  37.0 km/h 86 % 0.02 in /  0.5 mm
07:32 55.8 °F /  13.2 °C 51.3 °F /  10.7 °C 29.7 in /  1006.0 hPa West 12 mph /  19.3 km/h 23 mph /  37.0 km/h 85 % 0.02 in /  0.5 mm
07:37 55.6 °F /  13.1 °C 51.1 °F /  10.6 °C 29.7 in /  1006.3 hPa West 7 mph /  11.3 km/h 22 mph /  35.4 km/h 85 % 0.02 in /  0.5 mm
07:42 55.4 °F /  13.0 °C 51.3 °F /  10.7 °C 29.7 in /  1006.3 hPa WSW 7 mph /  11.3 km/h 22 mph /  35.4 km/h 86 % 0.02 in /  0.5 mm
07:47 55.6 °F /  13.1 °C 51.1 °F /  10.6 °C 29.7 in /  1006.7 hPa WNW 7 mph /  11.3 km/h 22 mph /  35.4 km/h 85 % 0.02 in /  0.5 mm
07:52 55.6 °F /  13.1 °C 51.1 °F /  10.6 °C 29.7 in /  1006.7 hPa WSW 10 mph /  16.1 km/h 15 mph /  24.1 km/h 85 % 0.02 in /  0.5 mm
07:57 55.2 °F /  12.9 °C 50.7 °F /  10.4 °C 29.7 in /  1007.0 hPa West 13 mph /  20.9 km/h 19 mph /  30.6 km/h 85 % 0.01 in /  0.3 mm
08:02 54.9 °F /  12.7 °C 50.7 °F /  10.4 °C 29.7 in /  1007.0 hPa West 9 mph /  14.5 km/h 21 mph /  33.8 km/h 86 % 0 in /  0.0 mm
08:07 54.3 °F /  12.4 °C 49.8 °F /  9.9 °C 29.7 in /  1007.3 hPa West 12 mph /  19.3 km/h 21 mph /  33.8 km/h 85 % 0 in /  0.0 mm
08:12 54.1 °F /  12.3 °C 49.5 °F /  9.7 °C 29.7 in /  1007.3 hPa NW 3 mph /  4.8 km/h 21 mph /  33.8 km/h 84 % 0 in /  0.0 mm
08:17 54.1 °F /  12.3 °C 50 °F /  10.0 °C 29.8 in /  1007.7 hPa WNW 4 mph /  6.4 km/h 21 mph /  33.8 km/h 86 % 0 in /  0.0 mm
08:22 54.1 °F /  12.3 °C 50.7 °F /  10.4 °C 29.8 in /  1008.0 hPa WSW 9 mph /  14.5 km/h 21 mph /  33.8 km/h 88 % 0 in /  0.0 mm
08:32 53.4 °F /  11.9 °C 49.1 °F /  9.5 °C 29.8 in /  1008.4 hPa WNW 11 mph /  17.7 km/h 18 mph /  29.0 km/h 85 % 0 in /  0.0 mm
08:37 53.6 °F /  12.0 °C 49.3 °F /  9.6 °C 29.8 in /  1008.4 hPa WNW 9 mph /  14.5 km/h 18 mph /  29.0 km/h 85 % 0 in /  0.0 mm
08:42 54 °F /  12.2 °C 49.3 °F /  9.6 °C 29.8 in /  1008.4 hPa WNW 9 mph /  14.5 km/h 18 mph /  29.0 km/h 84 % 0 in /  0.0 mm
08:47 54.3 °F /  12.4 °C 48.9 °F /  9.4 °C 29.8 in /  1008.4 hPa WNW 12 mph /  19.3 km/h 16 mph /  25.7 km/h 82 % 0 in /  0.0 mm
08:52 54.7 °F /  12.6 °C 48.9 °F /  9.4 °C 29.8 in /  1008.4 hPa WNW 11 mph /  17.7 km/h 20 mph /  32.2 km/h 81 % 0 in /  0.0 mm
08:57 54.9 °F /  12.7 °C 48.7 °F /  9.3 °C 29.8 in /  1008.7 hPa WNW 9 mph /  14.5 km/h 20 mph /  32.2 km/h 80 % 0 in /  0.0 mm
09:02 54.9 °F /  12.7 °C 48.6 °F /  9.2 °C 29.8 in /  1008.7 hPa WSW 9 mph /  14.5 km/h 19 mph /  30.6 km/h 79 % 0 in /  0.0 mm
09:07 54.9 °F /  12.7 °C 48.2 °F /  9.0 °C 29.8 in /  1008.7 hPa WNW 4 mph /  6.4 km/h 17 mph /  27.4 km/h 78 % 0 in /  0.0 mm
09:12 54.7 °F /  12.6 °C 48.6 °F /  9.2 °C 29.8 in /  1009.0 hPa West 6 mph /  9.7 km/h 15 mph /  24.1 km/h 80 % 0 in /  0.0 mm
09:17 54 °F /  12.2 °C 48.2 °F /  9.0 °C 29.8 in /  1009.4 hPa WNW 5 mph /  8.0 km/h 19 mph /  30.6 km/h 81 % 0 in /  0.0 mm
09:22 54 °F /  12.2 °C 48.6 °F /  9.2 °C 29.8 in /  1009.4 hPa WNW 8 mph /  12.9 km/h 19 mph /  30.6 km/h 82 % 0 in /  0.0 mm
09:27 54.1 °F /  12.3 °C 47.8 °F /  8.8 °C 29.8 in /  1009.4 hPa WNW 7 mph /  11.3 km/h 20 mph /  32.2 km/h 79 % 0 in /  0.0 mm
09:32 54.3 °F /  12.4 °C 48.6 °F /  9.2 °C 29.8 in /  1009.4 hPa SW 10 mph /  16.1 km/h 20 mph /  32.2 km/h 81 % 0 in /  0.0 mm
09:37 54 °F /  12.2 °C 47.7 °F /  8.7 °C 29.8 in /  1009.4 hPa West 14 mph /  22.5 km/h 20 mph /  32.2 km/h 79 % 0 in /  0.0 mm
09:42 54 °F /  12.2 °C 48 °F /  8.9 °C 29.8 in /  1009.4 hPa WSW 11 mph /  17.7 km/h 18 mph /  29.0 km/h 80 % 0 in /  0.0 mm
09:47 54.1 °F /  12.3 °C 48.4 °F /  9.1 °C 29.8 in /  1009.7 hPa West 9 mph /  14.5 km/h 18 mph /  29.0 km/h 81 % 0 in /  0.0 mm
09:52 54.1 °F /  12.3 °C 48 °F /  8.9 °C 29.8 in /  1009.7 hPa SW 7 mph /  11.3 km/h 17 mph /  27.4 km/h 80 % 0 in /  0.0 mm
09:57 54.1 °F /  12.3 °C 47.8 °F /  8.8 °C 29.8 in /  1009.7 hPa West 11 mph /  17.7 km/h 17 mph /  27.4 km/h 79 % 0 in /  0.0 mm
10:02 54.1 °F /  12.3 °C 48.4 °F /  9.1 °C 29.8 in /  1009.7 hPa WSW 5 mph /  8.0 km/h 17 mph /  27.4 km/h 81 % 0 in /  0.0 mm
10:07 54.1 °F /  12.3 °C 47.5 °F /  8.6 °C 29.8 in /  1009.7 hPa West 14 mph /  22.5 km/h 17 mph /  27.4 km/h 78 % 0 in /  0.0 mm
10:12 55 °F /  12.8 °C 49.3 °F /  9.6 °C 29.8 in /  1010.0 hPa WNW 7 mph /  11.3 km/h 17 mph /  27.4 km/h 81 % 0 in /  0.0 mm
10:22 55.2 °F /  12.9 °C 47.8 °F /  8.8 °C 29.8 in /  1010.0 hPa WSW 5 mph /  8.0 km/h 20 mph /  32.2 km/h 76 % 0 in /  0.0 mm
10:27 55.2 °F /  12.9 °C 48.2 °F /  9.0 °C 29.8 in /  1010.0 hPa SW 9 mph /  14.5 km/h 20 mph /  32.2 km/h 77 % 0 in /  0.0 mm
10:37 56.1 °F /  13.4 °C 47.3 °F /  8.5 °C 29.8 in /  1010.0 hPa West 9 mph /  14.5 km/h 20 mph /  32.2 km/h 72 % 0 in /  0.0 mm
10:42 56.3 °F /  13.5 °C 47.5 °F /  8.6 °C 29.8 in /  1010.0 hPa West 7 mph /  11.3 km/h 20 mph /  32.2 km/h 72 % 0 in /  0.0 mm
10:47 55.9 °F /  13.3 °C 47.1 °F /  8.4 °C 29.8 in /  1010.4 hPa WSW 10 mph /  16.1 km/h 20 mph /  32.2 km/h 72 % 0 in /  0.0 mm
10:52 56.1 °F /  13.4 °C 46.8 °F /  8.2 °C 29.8 in /  1010.4 hPa WSW 13 mph /  20.9 km/h 18 mph /  29.0 km/h 71 % 0 in /  0.0 mm
10:57 56.7 °F /  13.7 °C 46.9 °F /  8.3 °C 29.8 in /  1010.4 hPa WSW 8 mph /  12.9 km/h 19 mph /  30.6 km/h 70 % 0 in /  0.0 mm
11:02 56.8 °F /  13.8 °C 47.5 °F /  8.6 °C 29.8 in /  1010.4 hPa WSW 9 mph /  14.5 km/h 20 mph /  32.2 km/h 71 % 0 in /  0.0 mm
11:07 57 °F /  13.9 °C 46.9 °F /  8.3 °C 29.8 in /  1010.7 hPa WSW 11 mph /  17.7 km/h 20 mph /  32.2 km/h 69 % 0 in /  0.0 mm
11:12 57 °F /  13.9 °C 46.6 °F /  8.1 °C 29.8 in /  1010.7 hPa West 8 mph /  12.9 km/h 22 mph /  35.4 km/h 68 % 0 in /  0.0 mm
11:17 57.4 °F /  14.1 °C 47.3 °F /  8.5 °C 29.8 in /  1010.4 hPa West 9 mph /  14.5 km/h 26 mph /  41.8 km/h 69 % 0 in /  0.0 mm
11:22 57 °F /  13.9 °C 45.3 °F /  7.4 °C 29.8 in /  1010.7 hPa WNW 8 mph /  12.9 km/h 26 mph /  41.8 km/h 65 % 0 in /  0.0 mm
11:27 57.4 °F /  14.1 °C 45.7 °F /  7.6 °C 29.8 in /  1010.7 hPa West 7 mph /  11.3 km/h 23 mph /  37.0 km/h 65 % 0 in /  0.0 mm
11:32 57.7 °F /  14.3 °C 45.7 °F /  7.6 °C 29.9 in /  1011.1 hPa West 10 mph /  16.1 km/h 23 mph /  37.0 km/h 64 % 0 in /  0.0 mm
11:37 57.7 °F /  14.3 °C 46.4 °F /  8.0 °C 29.9 in /  1011.1 hPa West 16 mph /  25.7 km/h 25 mph /  40.2 km/h 66 % 0 in /  0.0 mm
11:42 57.9 °F /  14.4 °C 45.9 °F /  7.7 °C 29.9 in /  1011.1 hPa WSW 6 mph /  9.7 km/h 25 mph /  40.2 km/h 64 % 0 in /  0.0 mm
11:47 57.9 °F /  14.4 °C 46.2 °F /  7.9 °C 29.9 in /  1011.4 hPa West 13 mph /  20.9 km/h 25 mph /  40.2 km/h 65 % 0 in /  0.0 mm
11:52 57.4 °F /  14.1 °C 45.7 °F /  7.6 °C 29.9 in /  1011.4 hPa WSW 16 mph /  25.7 km/h 26 mph /  41.8 km/h 65 % 0 in /  0.0 mm
11:57 57.4 °F /  14.1 °C 45.3 °F /  7.4 °C 29.9 in /  1011.7 hPa West 10 mph /  16.1 km/h 26 mph /  41.8 km/h 64 % 0 in /  0.0 mm
12:02 57.4 °F /  14.1 °C 46 °F /  7.8 °C 29.9 in /  1011.7 hPa West 10 mph /  16.1 km/h 26 mph /  41.8 km/h 66 % 0 in /  0.0 mm
12:07 57.7 °F /  14.3 °C 45.7 °F /  7.6 °C 29.9 in /  1011.4 hPa West 15 mph /  24.1 km/h 22 mph /  35.4 km/h 64 % 0 in /  0.0 mm
12:12 58.6 °F /  14.8 °C 46 °F /  7.8 °C 29.9 in /  1011.7 hPa WSW 6 mph /  9.7 km/h 22 mph /  35.4 km/h 63 % 0 in /  0.0 mm
12:17 59 °F /  15.0 °C 45.5 °F /  7.5 °C 29.9 in /  1011.4 hPa WNW 8 mph /  12.9 km/h 22 mph /  35.4 km/h 61 % 0 in /  0.0 mm
12:22 58.8 °F /  14.9 °C 45.3 °F /  7.4 °C 29.9 in /  1011.7 hPa West 15 mph /  24.1 km/h 20 mph /  32.2 km/h 61 % 0 in /  0.0 mm
12:32 59.7 °F /  15.4 °C 45.3 °F /  7.4 °C 29.9 in /  1011.4 hPa West 10 mph /  16.1 km/h 25 mph /  40.2 km/h 59 % 0 in /  0.0 mm
12:42 59.7 °F /  15.4 °C 45.3 °F /  7.4 °C 29.9 in /  1011.4 hPa SW 7 mph /  11.3 km/h 25 mph /  40.2 km/h 59 % 0 in /  0.0 mm
12:47 60.1 °F /  15.6 °C 45.3 °F /  7.4 °C 29.9 in /  1011.4 hPa WSW 9 mph /  14.5 km/h 25 mph /  40.2 km/h 58 % 0 in /  0.0 mm
12:52 60.1 °F /  15.6 °C 46.9 °F /  8.3 °C 29.9 in /  1011.7 hPa SW 6 mph /  9.7 km/h 23 mph /  37.0 km/h 62 % 0 in /  0.0 mm
12:57 60.4 °F /  15.8 °C 46.9 °F /  8.3 °C 29.9 in /  1011.7 hPa WSW 17 mph /  27.4 km/h 22 mph /  35.4 km/h 61 % 0 in /  0.0 mm
13:02 60.4 °F /  15.8 °C 46.4 °F /  8.0 °C 29.9 in /  1011.7 hPa SW 16 mph /  25.7 km/h 22 mph /  35.4 km/h 60 % 0 in /  0.0 mm
13:07 60.4 °F /  15.8 °C 46.4 °F /  8.0 °C 29.9 in /  1011.7 hPa West 11 mph /  17.7 km/h 22 mph /  35.4 km/h 60 % 0 in /  0.0 mm
13:12 61 °F /  16.1 °C 46.6 °F /  8.1 °C 29.9 in /  1011.7 hPa WSW 16 mph /  25.7 km/h 22 mph /  35.4 km/h 59 % 0 in /  0.0 mm
13:17 60.6 °F /  15.9 °C 47.5 °F /  8.6 °C 29.9 in /  1011.7 hPa WSW 14 mph /  22.5 km/h 21 mph /  33.8 km/h 62 % 0 in /  0.0 mm
13:22 60.6 °F /  15.9 °C 47.5 °F /  8.6 °C 29.9 in /  1011.7 hPa SW 8 mph /  12.9 km/h 24 mph /  38.6 km/h 62 % 0 in /  0.0 mm
13:27 61.2 °F /  16.2 °C 48 °F /  8.9 °C 29.9 in /  1011.7 hPa West 5 mph /  8.0 km/h 24 mph /  38.6 km/h 62 % 0 in /  0.0 mm
13:32 61.2 °F /  16.2 °C 46.2 °F /  7.9 °C 29.9 in /  1011.7 hPa WSW 12 mph /  19.3 km/h 24 mph /  38.6 km/h 58 % 0 in /  0.0 mm
13:37 61 °F /  16.1 °C 47.8 °F /  8.8 °C 29.9 in /  1011.7 hPa WSW 13 mph /  20.9 km/h 21 mph /  33.8 km/h 62 % 0 in /  0.0 mm
13:42 61 °F /  16.1 °C 46 °F /  7.8 °C 29.9 in /  1011.7 hPa WSW 12 mph /  19.3 km/h 21 mph /  33.8 km/h 58 % 0 in /  0.0 mm
13:47 61.2 °F /  16.2 °C 46.2 °F /  7.9 °C 29.9 in /  1011.7 hPa West 6 mph /  9.7 km/h 21 mph /  33.8 km/h 58 % 0 in /  0.0 mm
13:52 61.3 °F /  16.3 °C 47.8 °F /  8.8 °C 29.9 in /  1011.7 hPa WSW 15 mph /  24.1 km/h 26 mph /  41.8 km/h 61 % 0 in /  0.0 mm
13:57 61.2 °F /  16.2 °C 47.1 °F /  8.4 °C 29.9 in /  1011.7 hPa SW 6 mph /  9.7 km/h 18 mph /  29.0 km/h 60 % 0 in /  0.0 mm
14:02 61.3 °F /  16.3 °C 46 °F /  7.8 °C 29.9 in /  1011.7 hPa WSW 10 mph /  16.1 km/h 22 mph /  35.4 km/h 57 % 0 in /  0.0 mm
14:07 61.3 °F /  16.3 °C 46.4 °F /  8.0 °C 29.9 in /  1011.7 hPa West 8 mph /  12.9 km/h 22 mph /  35.4 km/h 58 % 0 in /  0.0 mm
14:12 62.1 °F /  16.7 °C 47.5 °F /  8.6 °C 29.9 in /  1011.7 hPa WNW 12 mph /  19.3 km/h 22 mph /  35.4 km/h 59 % 0 in /  0.0 mm
14:17 62.8 °F /  17.1 °C 45.3 °F /  7.4 °C 29.9 in /  1011.7 hPa WSW 11 mph /  17.7 km/h 19 mph /  30.6 km/h 53 % 0 in /  0.0 mm
14:22 63.1 °F /  17.3 °C 45.1 °F /  7.3 °C 29.9 in /  1011.7 hPa WSW 7 mph /  11.3 km/h 20 mph /  32.2 km/h 52 % 0 in /  0.0 mm
14:32 62.4 °F /  16.9 °C 47.5 °F /  8.6 °C 29.9 in /  1011.7 hPa WSW 11 mph /  17.7 km/h 22 mph /  35.4 km/h 58 % 0 in /  0.0 mm
14:42 62.8 °F /  17.1 °C 46.9 °F /  8.3 °C 29.9 in /  1011.7 hPa West 16 mph /  25.7 km/h 26 mph /  41.8 km/h 56 % 0 in /  0.0 mm
14:47 62.8 °F /  17.1 °C 46.4 °F /  8.0 °C 29.9 in /  1012.1 hPa SW 9 mph /  14.5 km/h 26 mph /  41.8 km/h 55 % 0 in /  0.0 mm
14:52 62.4 °F /  16.9 °C 44.6 °F /  7.0 °C 29.9 in /  1011.7 hPa SSW 9 mph /  14.5 km/h 27 mph /  43.4 km/h 52 % 0 in /  0.0 mm
14:57 62.4 °F /  16.9 °C 44.6 °F /  7.0 °C 29.9 in /  1011.7 hPa WSW 11 mph /  17.7 km/h 27 mph /  43.4 km/h 52 % 0 in /  0.0 mm
15:02 62.2 °F /  16.8 °C 45.3 °F /  7.4 °C 29.9 in /  1012.1 hPa WSW 29 mph /  46.7 km/h 29 mph /  46.7 km/h 54 % 0 in /  0.0 mm
15:07 62.1 °F /  16.7 °C 45.1 °F /  7.3 °C 29.9 in /  1011.7 hPa SW 16 mph /  25.7 km/h 30 mph /  48.3 km/h 54 % 0 in /  0.0 mm
15:12 62.4 °F /  16.9 °C 45.5 °F /  7.5 °C 29.9 in /  1011.7 hPa South 7 mph /  11.3 km/h 30 mph /  48.3 km/h 54 % 0 in /  0.0 mm
15:17 63 °F /  17.2 °C 46 °F /  7.8 °C 29.9 in /  1012.1 hPa WSW 10 mph /  16.1 km/h 30 mph /  48.3 km/h 54 % 0 in /  0.0 mm
15:22 63.1 °F /  17.3 °C 46.2 °F /  7.9 °C 29.9 in /  1011.7 hPa SW 19 mph /  30.6 km/h 25 mph /  40.2 km/h 54 % 0 in /  0.0 mm
15:27 63.1 °F /  17.3 °C 45.1 °F /  7.3 °C 29.9 in /  1012.1 hPa WSW 9 mph /  14.5 km/h 26 mph /  41.8 km/h 52 % 0 in /  0.0 mm
15:32 62.4 °F /  16.9 °C 45.5 °F /  7.5 °C 29.9 in /  1012.1 hPa SW 17 mph /  27.4 km/h 26 mph /  41.8 km/h 54 % 0 in /  0.0 mm
15:37 62.2 °F /  16.8 °C 46.4 °F /  8.0 °C 29.9 in /  1012.1 hPa WNW 12 mph /  19.3 km/h 26 mph /  41.8 km/h 56 % 0 in /  0.0 mm
15:42 62.6 °F /  17.0 °C 45.1 °F /  7.3 °C 29.9 in /  1012.4 hPa West 21 mph /  33.8 km/h 29 mph /  46.7 km/h 53 % 0 in /  0.0 mm
15:52 62.4 °F /  16.9 °C 45.1 °F /  7.3 °C 29.9 in /  1012.1 hPa WSW 6 mph /  9.7 km/h 29 mph /  46.7 km/h 53 % 0 in /  0.0 mm
15:57 62.8 °F /  17.1 °C 45.9 °F /  7.7 °C 29.9 in /  1012.1 hPa WSW 16 mph /  25.7 km/h 26 mph /  41.8 km/h 54 % 0 in /  0.0 mm
16:02 63.1 °F /  17.3 °C 46.8 °F /  8.2 °C 29.9 in /  1012.1 hPa WSW 8 mph /  12.9 km/h 23 mph /  37.0 km/h 55 % 0 in /  0.0 mm
16:07 62.4 °F /  16.9 °C 46.9 °F /  8.3 °C 29.9 in /  1012.4 hPa WNW 12 mph /  19.3 km/h 29 mph /  46.7 km/h 57 % 0 in /  0.0 mm
16:12 61.9 °F /  16.6 °C 47.5 °F /  8.6 °C 29.9 in /  1012.4 hPa WSW 16 mph /  25.7 km/h 30 mph /  48.3 km/h 59 % 0 in /  0.0 mm
16:17 61.5 °F /  16.4 °C 48.4 °F /  9.1 °C 29.9 in /  1012.4 hPa SW 9 mph /  14.5 km/h 30 mph /  48.3 km/h 62 % 0 in /  0.0 mm
16:22 62.2 °F /  16.8 °C 50 °F /  10.0 °C 29.9 in /  1012.4 hPa West 13 mph /  20.9 km/h 30 mph /  48.3 km/h 64 % 0 in /  0.0 mm
16:27 61.5 °F /  16.4 °C 48.7 °F /  9.3 °C 29.9 in /  1012.4 hPa SW 22 mph /  35.4 km/h 30 mph /  48.3 km/h 63 % 0 in /  0.0 mm
16:32 61.3 °F /  16.3 °C 46.9 °F /  8.3 °C 29.9 in /  1012.4 hPa West 12 mph /  19.3 km/h 30 mph /  48.3 km/h 59 % 0 in /  0.0 mm
16:37 61.5 °F /  16.4 °C 47.1 °F /  8.4 °C 29.9 in /  1012.4 hPa SW 13 mph /  20.9 km/h 30 mph /  48.3 km/h 59 % 0 in /  0.0 mm
16:42 61.9 °F /  16.6 °C 48.7 °F /  9.3 °C 29.9 in /  1012.4 hPa West 11 mph /  17.7 km/h 25 mph /  40.2 km/h 62 % 0 in /  0.0 mm
16:47 61.5 °F /  16.4 °C 47.1 °F /  8.4 °C 29.9 in /  1012.4 hPa WSW 11 mph /  17.7 km/h 24 mph /  38.6 km/h 59 % 0 in /  0.0 mm
16:52 61.9 °F /  16.6 °C 47.5 °F /  8.6 °C 29.9 in /  1012.4 hPa WSW 14 mph /  22.5 km/h 29 mph /  46.7 km/h 59 % 0 in /  0.0 mm
16:57 61.9 °F /  16.6 °C 47.5 °F /  8.6 °C 29.9 in /  1012.4 hPa SW 16 mph /  25.7 km/h 29 mph /  46.7 km/h 59 % 0 in /  0.0 mm
17:02 62.1 °F /  16.7 °C 47.5 °F /  8.6 °C 29.9 in /  1012.8 hPa SW 12 mph /  19.3 km/h 24 mph /  38.6 km/h 59 % 0 in /  0.0 mm
17:07 61.9 °F /  16.6 °C 47.5 °F /  8.6 °C 29.9 in /  1012.8 hPa West 18 mph /  29.0 km/h 24 mph /  38.6 km/h 59 % 0 in /  0.0 mm
17:12 60.6 °F /  15.9 °C 47.5 °F /  8.6 °C 29.9 in /  1012.8 hPa SSW 13 mph /  20.9 km/h 29 mph /  46.7 km/h 62 % 0 in /  0.0 mm
17:17 60.1 °F /  15.6 °C 49.1 °F /  9.5 °C 29.9 in /  1012.8 hPa West 5 mph /  8.0 km/h 29 mph /  46.7 km/h 67 % 0 in /  0.0 mm
17:22 60.1 °F /  15.6 °C 48.2 °F /  9.0 °C 29.9 in /  1012.8 hPa SW 11 mph /  17.7 km/h 29 mph /  46.7 km/h 65 % 0 in /  0.0 mm
17:27 60.1 °F /  15.6 °C 49.1 °F /  9.5 °C 29.9 in /  1012.8 hPa WSW 12 mph /  19.3 km/h 25 mph /  40.2 km/h 67 % 0 in /  0.0 mm
17:32 59.9 °F /  15.5 °C 49.3 °F /  9.6 °C 29.9 in /  1012.8 hPa West 3 mph /  4.8 km/h 21 mph /  33.8 km/h 68 % 0 in /  0.0 mm
17:37 59.9 °F /  15.5 °C 49.3 °F /  9.6 °C 29.9 in /  1013.1 hPa SSW 7 mph /  11.3 km/h 21 mph /  33.8 km/h 68 % 0 in /  0.0 mm
17:42 57 °F /  13.9 °C 48 °F /  8.9 °C 29.9 in /  1013.4 hPa NNW 9 mph /  14.5 km/h 28 mph /  45.1 km/h 72 % 0 in /  0.0 mm
17:47 54.5 °F /  12.5 °C 48.7 °F /  9.3 °C 29.9 in /  1013.1 hPa WNW 3 mph /  4.8 km/h 28 mph /  45.1 km/h 81 % 0.02 in /  0.5 mm
17:52 54.7 °F /  12.6 °C 50 °F /  10.0 °C 29.9 in /  1013.1 hPa West 6 mph /  9.7 km/h 28 mph /  45.1 km/h 84 % 0.02 in /  0.5 mm
17:57 55.6 °F /  13.1 °C 50.9 °F /  10.5 °C 29.9 in /  1013.1 hPa WNW 4 mph /  6.4 km/h 25 mph /  40.2 km/h 84 % 0.02 in /  0.5 mm
18:02 56.7 °F /  13.7 °C 50.9 °F /  10.5 °C 29.9 in /  1013.1 hPa NW 2 mph /  3.2 km/h 11 mph /  17.7 km/h 81 % 0.02 in /  0.5 mm
18:12 59 °F /  15.0 °C 49.3 °F /  9.6 °C 29.9 in /  1013.1 hPa West 16 mph /  25.7 km/h 16 mph /  25.7 km/h 70 % 0.02 in /  0.5 mm
18:17 60.1 °F /  15.6 °C 49.1 °F /  9.5 °C 29.9 in /  1013.1 hPa West 6 mph /  9.7 km/h 19 mph /  30.6 km/h 67 % 0.02 in /  0.5 mm
18:22 60.4 °F /  15.8 °C 47.3 °F /  8.5 °C 29.9 in /  1013.1 hPa WSW 10 mph /  16.1 km/h 19 mph /  30.6 km/h 62 % 0.02 in /  0.5 mm
18:32 61.2 °F /  16.2 °C 46.8 °F /  8.2 °C 29.9 in /  1013.1 hPa WNW 11 mph /  17.7 km/h 21 mph /  33.8 km/h 59 % 0.02 in /  0.5 mm
18:42 59.7 °F /  15.4 °C 48 °F /  8.9 °C 29.9 in /  1013.8 hPa WNW 21 mph /  33.8 km/h 26 mph /  41.8 km/h 65 % 0.02 in /  0.5 mm
18:47 58.6 °F /  14.8 °C 49.6 °F /  9.8 °C 29.9 in /  1013.4 hPa West 10 mph /  16.1 km/h 26 mph /  41.8 km/h 72 % 0 in /  0.0 mm
18:52 59.2 °F /  15.1 °C 50.2 °F /  10.1 °C 29.9 in /  1013.4 hPa West 6 mph /  9.7 km/h 26 mph /  41.8 km/h 72 % 0.01 in /  0.3 mm
18:57 59.5 °F /  15.3 °C 49.8 °F /  9.9 °C 29.9 in /  1013.4 hPa West 8 mph /  12.9 km/h 26 mph /  41.8 km/h 70 % 0.01 in /  0.3 mm
19:02 59.4 °F /  15.2 °C 49.6 °F /  9.8 °C 29.9 in /  1013.4 hPa West 7 mph /  11.3 km/h 16 mph /  25.7 km/h 70 % 0.01 in /  0.3 mm
19:07 59.2 °F /  15.1 °C 50.2 °F /  10.1 °C 29.9 in /  1013.4 hPa WSW 3 mph /  4.8 km/h 13 mph /  20.9 km/h 72 % 0.01 in /  0.3 mm
19:12 59 °F /  15.0 °C 50 °F /  10.0 °C 29.9 in /  1013.8 hPa NW 15 mph /  24.1 km/h 15 mph /  24.1 km/h 72 % 0.01 in /  0.3 mm
19:17 56.8 °F /  13.8 °C 48.9 °F /  9.4 °C 29.9 in /  1013.8 hPa WNW 6 mph /  9.7 km/h 19 mph /  30.6 km/h 75 % 0.01 in /  0.3 mm
19:22 55.2 °F /  12.9 °C 49.1 °F /  9.5 °C 29.9 in /  1014.1 hPa WNW 8 mph /  12.9 km/h 19 mph /  30.6 km/h 80 % 0.01 in /  0.3 mm
19:27 54.5 °F /  12.5 °C 49.1 °F /  9.5 °C 29.9 in /  1014.1 hPa NW 2 mph /  3.2 km/h 19 mph /  30.6 km/h 82 % 0.01 in /  0.3 mm
19:32 54.1 °F /  12.3 °C 49.5 °F /  9.7 °C 30 in /  1014.4 hPa NW 8 mph /  12.9 km/h 14 mph /  22.5 km/h 84 % 0.01 in /  0.3 mm
19:37 54.3 °F /  12.4 °C 49.3 °F /  9.6 °C 30 in /  1014.4 hPa West 2 mph /  3.2 km/h 15 mph /  24.1 km/h 83 % 0.01 in /  0.3 mm
19:42 54.1 °F /  12.3 °C 49.1 °F /  9.5 °C 30 in /  1014.4 hPa WNW 6 mph /  9.7 km/h 15 mph /  24.1 km/h 83 % 0.01 in /  0.3 mm
19:47 54 °F /  12.2 °C 48.9 °F /  9.4 °C 30 in /  1014.4 hPa NW 8 mph /  12.9 km/h 15 mph /  24.1 km/h 83 % 0 in /  0.0 mm
19:52 53.8 °F /  12.1 °C 49.1 °F /  9.5 °C 30 in /  1014.8 hPa WNW 5 mph /  8.0 km/h 15 mph /  24.1 km/h 84 % 0 in /  0.0 mm
19:57 53.6 °F /  12.0 °C 48.6 °F /  9.2 °C 30 in /  1014.8 hPa WNW 5 mph /  8.0 km/h 16 mph /  25.7 km/h 83 % 0 in /  0.0 mm
20:02 53.4 °F /  11.9 °C 48.7 °F /  9.3 °C 30 in /  1014.8 hPa West 5 mph /  8.0 km/h 17 mph /  27.4 km/h 84 % 0 in /  0.0 mm
20:07 53.2 °F /  11.8 °C 48.9 °F /  9.4 °C 30 in /  1014.8 hPa North 2 mph /  3.2 km/h 18 mph /  29.0 km/h 85 % 0 in /  0.0 mm
20:12 53.1 °F /  11.7 °C 48.9 °F /  9.4 °C 30 in /  1014.8 hPa NW 2 mph /  3.2 km/h 18 mph /  29.0 km/h 86 % 0 in /  0.0 mm
20:17 52.9 °F /  11.6 °C 48.7 °F /  9.3 °C 30 in /  1015.1 hPa West 6 mph /  9.7 km/h 18 mph /  29.0 km/h 86 % 0 in /  0.0 mm
20:22 52.9 °F /  11.6 °C 48.7 °F /  9.3 °C 30 in /  1015.1 hPa WNW 5 mph /  8.0 km/h 15 mph /  24.1 km/h 86 % 0 in /  0.0 mm
20:27 52.7 °F /  11.5 °C 48.6 °F /  9.2 °C 30 in /  1015.1 hPa WNW 3 mph /  4.8 km/h 13 mph /  20.9 km/h 86 % 0 in /  0.0 mm
20:32 52.7 °F /  11.5 °C 48.6 °F /  9.2 °C 30 in /  1014.8 hPa WNW 5 mph /  8.0 km/h 13 mph /  20.9 km/h 86 % 0 in /  0.0 mm
20:37 52.9 °F /  11.6 °C 48.7 °F /  9.3 °C 30 in /  1014.8 hPa WNW 4 mph /  6.4 km/h 12 mph /  19.3 km/h 86 % 0 in /  0.0 mm
20:42 53.1 °F /  11.7 °C 48.7 °F /  9.3 °C 30 in /  1014.8 hPa WSW 2 mph /  3.2 km/h 11 mph /  17.7 km/h 85 % 0 in /  0.0 mm
20:47 53.6 °F /  12.0 °C 48.6 °F /  9.2 °C 30 in /  1014.8 hPa West 2 mph /  3.2 km/h 10 mph /  16.1 km/h 83 % 0 in /  0.0 mm
20:52 54 °F /  12.2 °C 48.2 °F /  9.0 °C 30 in /  1014.8 hPa West 5 mph /  8.0 km/h 9 mph /  14.5 km/h 81 % 0 in /  0.0 mm
20:57 54 °F /  12.2 °C 48.2 °F /  9.0 °C 30 in /  1015.1 hPa WSW 2 mph /  3.2 km/h 9 mph /  14.5 km/h 81 % 0 in /  0.0 mm
21:02 53.8 °F /  12.1 °C 47.8 °F /  8.8 °C 30 in /  1015.1 hPa West 6 mph /  9.7 km/h 9 mph /  14.5 km/h 80 % 0 in /  0.0 mm
21:07 53.8 °F /  12.1 °C 47.1 °F /  8.4 °C 30 in /  1015.1 hPa WSW 3 mph /  4.8 km/h 10 mph /  16.1 km/h 78 % 0 in /  0.0 mm
21:12 53.8 °F /  12.1 °C 47.1 °F /  8.4 °C 30 in /  1015.1 hPa West 2 mph /  3.2 km/h 10 mph /  16.1 km/h 78 % 0 in /  0.0 mm
21:17 53.6 °F /  12.0 °C 46.9 °F /  8.3 °C 30 in /  1015.5 hPa WSW 3 mph /  4.8 km/h 10 mph /  16.1 km/h 78 % 0 in /  0.0 mm
21:22 53.4 °F /  11.9 °C 47.1 °F /  8.4 °C 30 in /  1015.5 hPa WNW 3 mph /  4.8 km/h 8 mph /  12.9 km/h 79 % 0 in /  0.0 mm
21:32 53.4 °F /  11.9 °C 47.5 °F /  8.6 °C 30 in /  1015.8 hPa West 4 mph /  6.4 km/h 7 mph /  11.3 km/h 80 % 0 in /  0.0 mm
21:37 53.4 °F /  11.9 °C 47.5 °F /  8.6 °C 30 in /  1015.8 hPa WSW 4 mph /  6.4 km/h 10 mph /  16.1 km/h 80 % 0 in /  0.0 mm
21:42 53.4 °F /  11.9 °C 47.5 °F /  8.6 °C 30 in /  1015.8 hPa West 5 mph /  8.0 km/h 10 mph /  16.1 km/h 80 % 0 in /  0.0 mm
21:47 53.4 °F /  11.9 °C 47.5 °F /  8.6 °C 30 in /  1015.8 hPa SSW 3 mph /  4.8 km/h 14 mph /  22.5 km/h 80 % 0 in /  0.0 mm
21:52 53.4 °F /  11.9 °C 47.5 °F /  8.6 °C 30 in /  1015.8 hPa WSW 4 mph /  6.4 km/h 14 mph /  22.5 km/h 80 % 0 in /  0.0 mm
21:57 53.4 °F /  11.9 °C 47.5 °F /  8.6 °C 30 in /  1015.8 hPa WSW 5 mph /  8.0 km/h 14 mph /  22.5 km/h 80 % 0 in /  0.0 mm
22:02 53.4 °F /  11.9 °C 47.7 °F /  8.7 °C 30 in /  1015.8 hPa WSW 2 mph /  3.2 km/h 7 mph /  11.3 km/h 81 % 0 in /  0.0 mm
22:07 53.2 °F /  11.8 °C 47.5 °F /  8.6 °C 30 in /  1016.1 hPa SW 3 mph /  4.8 km/h 8 mph /  12.9 km/h 81 % 0 in /  0.0 mm
22:12 53.2 °F /  11.8 °C 47.5 °F /  8.6 °C 30 in /  1016.1 hPa West 4 mph /  6.4 km/h 8 mph /  12.9 km/h 81 % 0 in /  0.0 mm
22:17 53.1 °F /  11.7 °C 47.3 °F /  8.5 °C 30 in /  1016.1 hPa WSW 3 mph /  4.8 km/h 9 mph /  14.5 km/h 81 % 0 in /  0.0 mm
22:22 52.9 °F /  11.6 °C 47.5 °F /  8.6 °C 30 in /  1016.1 hPa West 2 mph /  3.2 km/h 9 mph /  14.5 km/h 82 % 0 in /  0.0 mm
22:27 52.5 °F /  11.4 °C 47.5 °F /  8.6 °C 30 in /  1016.5 hPa WSW 1 mph /  1.6 km/h 7 mph /  11.3 km/h 83 % 0 in /  0.0 mm
22:32 52.3 °F /  11.3 °C 47.7 °F /  8.7 °C 30 in /  1016.5 hPa Calm   6 mph /  9.7 km/h 84 % 0 in /  0.0 mm
22:37 52.2 °F /  11.2 °C 47.8 °F /  8.8 °C 30 in /  1016.5 hPa WNW 1 mph /  1.6 km/h 4 mph /  6.4 km/h 85 % 0 in /  0.0 mm
22:47 51.6 °F /  10.9 °C 47.5 °F /  8.6 °C 30 in /  1016.8 hPa West 3 mph /  4.8 km/h 3 mph /  4.8 km/h 86 % 0 in /  0.0 mm
22:52 51.6 °F /  10.9 °C 47.5 °F /  8.6 °C 30 in /  1016.8 hPa WSW 2 mph /  3.2 km/h 4 mph /  6.4 km/h 86 % 0 in /  0.0 mm
22:57 51.8 °F /  11.0 °C 47.7 °F /  8.7 °C 30 in /  1016.8 hPa West 3 mph /  4.8 km/h 4 mph /  6.4 km/h 86 % 0 in /  0.0 mm
23:02 52.2 °F /  11.2 °C 48 °F /  8.9 °C 30 in /  1016.8 hPa West 5 mph /  8.0 km/h 6 mph /  9.7 km/h 86 % 0 in /  0.0 mm
23:12 52.7 °F /  11.5 °C 48.4 °F /  9.1 °C 30 in /  1016.8 hPa WSW 2 mph /  3.2 km/h 8 mph /  12.9 km/h 85 % 0 in /  0.0 mm
23:17 52.9 °F /  11.6 °C 48.6 °F /  9.2 °C 30 in /  1016.8 hPa SW 4 mph /  6.4 km/h 8 mph /  12.9 km/h 85 % 0 in /  0.0 mm
23:22 52.9 °F /  11.6 °C 48.2 °F /  9.0 °C 30 in /  1016.8 hPa SW 2 mph /  3.2 km/h 8 mph /  12.9 km/h 84 % 0 in /  0.0 mm
23:27 52.9 °F /  11.6 °C 48.2 °F /  9.0 °C 30 in /  1016.8 hPa SW 3 mph /  4.8 km/h 8 mph /  12.9 km/h 84 % 0 in /  0.0 mm
23:32 52.7 °F /  11.5 °C 48.4 °F /  9.1 °C 30 in /  1016.8 hPa SW 3 mph /  4.8 km/h 8 mph /  12.9 km/h 85 % 0 in /  0.0 mm
23:37 52.5 °F /  11.4 °C 48.2 °F /  9.0 °C 30 in /  1016.8 hPa WSW 1 mph /  1.6 km/h 8 mph /  12.9 km/h 85 % 0 in /  0.0 mm
23:42 52.5 °F /  11.4 °C 48.4 °F /  9.1 °C 30 in /  1016.8 hPa WSW 2 mph /  3.2 km/h 8 mph /  12.9 km/h 86 % 0 in /  0.0 mm
23:47 52.3 °F /  11.3 °C 48.2 °F /  9.0 °C 30 in /  1016.8 hPa SW 3 mph /  4.8 km/h 8 mph /  12.9 km/h 86 % 0 in /  0.0 mm
23:52 52.2 °F /  11.2 °C 48.4 °F /  9.1 °C 30 in /  1016.8 hPa SW 6 mph /  9.7 km/h 7 mph /  11.3 km/h 87 % 0 in /  0.0 mm
23:57 52.2 °F /  11.2 °C 48.4 °F /  9.1 °C 30 in /  1016.8 hPa SW 5 mph /  8.0 km/h 8 mph /  12.9 km/h 87 % 0 in /  0.0 mm
Meteo18
Compliments of Weather Underground - 4 mb

Script developed by  Jim McMurry - jmcmurry@mwt.net Adapted for the template by  Wim van der Kuil - Leuven-Template.eu

You find our weather info also at:

European Weather Network

Weather Underground

Equipment we use:

Weather-station
Davis Vue

Weather-program
Meteohub

Weather-server
Raspberry PI 2 B+

Provider
1 and 1

Davis Vue

Meteohub

Raspberry PI 2 B+

1 and 1